Taloyoak Airport
CYYH : now visible

Airfield :











YOU CAN JOIN US ON...

 
LOGIN :

Register | Disclaimer

   EN    FR    IT 

 









Legend :    VFR   Marginal VFR   IFR   Intensive IFR   Very Intensive IFR
Visi :
Ceiling :
>= 8 km
>= 3000ft
5 to 8 km
1000 to 3000 ft
1500m to 5 km
500 to 1000 ft
800 to 1500m
200 to 500 ft
< 800m
< 200 ft
Symbols :   Thunderstorms  Fog  Heavy snow  Heavy precipitations  Wind > 20 kt






- Airport Elevation : 92 ft
- IATA code : YYH


CYYH - Taloyoak

CURRENT METAR :
  • 090700Z 36009KT 15SM FEW071 10/09 A2978 RMK AC1 AC TR WIND ESTD SLP087

EXPIRED METARs :
  • 090600Z 36009G//KT 15SM FEW078 12/09 A2978 RMK AC1 WIND ESTD SLP087
  • 090500Z 36009KT 15SM FEW077 12/09 A2977 RMK AC2 WIND ESTD SLP086

TAF TAF CYYH
Valid from the 09 at 06:00 until the 09 at 18:00 UTC


090540Z 0906/0918 36008KT P6SM FEW080
BECMG 0910/0912 32008KT RMK NXT FCST BY 091200Z
CZEG FIR / North America



MET'MAP, your aeronautical weather chart ! - Copyright ORBIFLY December 2007 - Disclaimer

ORBIFLY MET'MAP TEAM :

Programming & Development : Alexandra Zaïnal
Original concept : Baudouin d'Aumeries
Technical & hardware support : Manuel Goepfert
Assistance : Marc-Olivier Méhu




SOURCES & CREDITS :

   NOAA       Earth
Advisory